Terminal Aerodrome Forecast
Issued by NWS

Home | Current Version | Previous Version | Text Only | Print | Product List | Glossary On
Versions: 1 2 3 4 5 6 7 8 9 10 11 12 13 14 15 16 17 18 19 20 21 22 23 24 25 26 27 28 29 30
000
FTUS43 KDLH 052345
TAFHYR
TAF
KHYR 052345Z 0600/0624 17011G20KT P6SM SCT070
     FM060300 17008KT P6SM VCTS SCT035 OVC050CB
     FM060800 17006KT 3SM -SHRA BR VCTS OVC025CB
      TEMPO 0608/0612 1SM RA OVC005
     FM061400 VRB03KT 2SM SHRA BR OVC010=

USA.gov is the U.S. government's official web portal to all federal, state and local government web resources and services.